sensor_id;sensor_type;location;lat;lon;timestamp;P1;durP1;ratioP1;P2;durP2;ratioP2
18716;SDS011;9487;50.892;6.906;2023-06-24T00:00:01;8.83;;;7.93;;
18716;SDS011;9487;50.892;6.906;2023-06-24T00:02:34;7.93;;;7.23;;
18716;SDS011;9487;50.892;6.906;2023-06-24T00:05:02;7.87;;;7.27;;
18716;SDS011;9487;50.892;6.906;2023-06-24T00:07:31;7.80;;;7.10;;
18716;SDS011;9487;50.892;6.906;2023-06-24T00:10:01;7.93;;;7.13;;
18716;SDS011;9487;50.892;6.906;2023-06-24T00:12:29;8.10;;;7.30;;
18716;SDS011;9487;50.892;6.906;2023-06-24T00:14:58;7.80;;;7.03;;
18716;SDS011;9487;50.892;6.906;2023-06-24T00:17:24;7.87;;;6.90;;
18716;SDS011;9487;50.892;6.906;2023-06-24T00:19:54;7.63;;;7.03;;
18716;SDS011;9487;50.892;6.906;2023-06-24T00:22:21;8.37;;;7.67;;
18716;SDS011;9487;50.892;6.906;2023-06-24T00:24:48;8.00;;;7.27;;
18716;SDS011;9487;50.892;6.906;2023-06-24T00:27:15;7.43;;;6.73;;
18716;SDS011;9487;50.892;6.906;2023-06-24T00:29:42;9.10;;;8.20;;
18716;SDS011;9487;50.892;6.906;2023-06-24T00:32:09;7.63;;;6.83;;
18716;SDS011;9487;50.892;6.906;2023-06-24T00:34:36;8.17;;;7.37;;
18716;SDS011;9487;50.892;6.906;2023-06-24T00:37:04;8.30;;;7.60;;
18716;SDS011;9487;50.892;6.906;2023-06-24T00:39:31;8.73;;;7.93;;
18716;SDS011;9487;50.892;6.906;2023-06-24T00:41:58;8.13;;;7.43;;
18716;SDS011;9487;50.892;6.906;2023-06-24T00:44:25;7.93;;;7.13;;
18716;SDS011;9487;50.892;6.906;2023-06-24T00:46:53;8.27;;;7.47;;
18716;SDS011;9487;50.892;6.906;2023-06-24T00:49:20;7.73;;;7.03;;
18716;SDS011;9487;50.892;6.906;2023-06-24T00:51:47;8.07;;;7.47;;
18716;SDS011;9487;50.892;6.906;2023-06-24T00:54:17;8.23;;;7.43;;
18716;SDS011;9487;50.892;6.906;2023-06-24T00:56:45;8.60;;;7.80;;
18716;SDS011;9487;50.892;6.906;2023-06-24T00:59:13;7.93;;;7.23;;
18716;SDS011;9487;50.892;6.906;2023-06-24T01:01:41;8.03;;;7.33;;
18716;SDS011;9487;50.892;6.906;2023-06-24T01:04:10;9.27;;;8.23;;
18716;SDS011;9487;50.892;6.906;2023-06-24T01:06:37;8.27;;;7.57;;
18716;SDS011;9487;50.892;6.906;2023-06-24T01:09:08;8.27;;;7.37;;
18716;SDS011;9487;50.892;6.906;2023-06-24T01:11:36;8.60;;;7.80;;
18716;SDS011;9487;50.892;6.906;2023-06-24T01:14:05;11.10;;;8.27;;
18716;SDS011;9487;50.892;6.906;2023-06-24T01:16:33;8.97;;;8.17;;
18716;SDS011;9487;50.892;6.906;2023-06-24T01:19:13;8.33;;;7.53;;
18716;SDS011;9487;50.892;6.906;2023-06-24T01:22:04;10.27;;;8.00;;
18716;SDS011;9487;50.892;6.906;2023-06-24T01:24:45;9.37;;;8.47;;
18716;SDS011;9487;50.892;6.906;2023-06-24T01:27:27;8.40;;;7.50;;
18716;SDS011;9487;50.892;6.906;2023-06-24T01:30:17;9.63;;;8.53;;
18716;SDS011;9487;50.892;6.906;2023-06-24T01:33:08;8.63;;;7.83;;
18716;SDS011;9487;50.892;6.906;2023-06-24T01:35:39;9.33;;;7.80;;
18716;SDS011;9487;50.892;6.906;2023-06-24T01:38:10;9.47;;;8.57;;
18716;SDS011;9487;50.892;6.906;2023-06-24T01:40:43;9.23;;;8.33;;
18716;SDS011;9487;50.892;6.906;2023-06-24T01:43:11;9.73;;;8.83;;
18716;SDS011;9487;50.892;6.906;2023-06-24T01:45:42;8.97;;;7.97;;
18716;SDS011;9487;50.892;6.906;2023-06-24T01:48:13;9.80;;;8.90;;
18716;SDS011;9487;50.892;6.906;2023-06-24T01:50:42;8.70;;;7.83;;
18716;SDS011;9487;50.892;6.906;2023-06-24T01:53:12;9.40;;;8.40;;
18716;SDS011;9487;50.892;6.906;2023-06-24T01:55:40;9.33;;;8.17;;
18716;SDS011;9487;50.892;6.906;2023-06-24T01:58:09;9.40;;;8.60;;
18716;SDS011;9487;50.892;6.906;2023-06-24T02:00:39;9.93;;;9.03;;
18716;SDS011;9487;50.892;6.906;2023-06-24T02:03:07;10.03;;;9.23;;
18716;SDS011;9487;50.892;6.906;2023-06-24T02:08:04;11.80;;;9.40;;
18716;SDS011;9487;50.892;6.906;2023-06-24T02:10:34;9.80;;;8.90;;
18716;SDS011;9487;50.892;6.906;2023-06-24T02:13:04;10.50;;;9.57;;
18716;SDS011;9487;50.892;6.906;2023-06-24T02:15:31;11.13;;;10.13;;
18716;SDS011;9487;50.892;6.906;2023-06-24T02:18:01;10.43;;;9.43;;
18716;SDS011;9487;50.892;6.906;2023-06-24T02:20:28;10.30;;;9.30;;
18716;SDS011;9487;50.892;6.906;2023-06-24T02:22:57;11.00;;;9.93;;
18716;SDS011;9487;50.892;6.906;2023-06-24T02:25:27;10.53;;;9.63;;
18716;SDS011;9487;50.892;6.906;2023-06-24T02:27:54;10.33;;;9.43;;
18716;SDS011;9487;50.892;6.906;2023-06-24T02:30:22;10.60;;;9.60;;
18716;SDS011;9487;50.892;6.906;2023-06-24T02:32:51;11.57;;;10.43;;
18716;SDS011;9487;50.892;6.906;2023-06-24T02:35:18;10.83;;;9.70;;
18716;SDS011;9487;50.892;6.906;2023-06-24T02:37:45;11.67;;;10.57;;
18716;SDS011;9487;50.892;6.906;2023-06-24T02:40:12;11.47;;;10.47;;
18716;SDS011;9487;50.892;6.906;2023-06-24T02:42:41;11.33;;;10.30;;
18716;SDS011;9487;50.892;6.906;2023-06-24T02:45:09;10.70;;;9.70;;
18716;SDS011;9487;50.892;6.906;2023-06-24T02:47:36;11.77;;;10.77;;
18716;SDS011;9487;50.892;6.906;2023-06-24T02:50:04;11.07;;;10.07;;
18716;SDS011;9487;50.892;6.906;2023-06-24T02:52:34;10.30;;;9.40;;
18716;SDS011;9487;50.892;6.906;2023-06-24T02:55:02;11.27;;;10.20;;
18716;SDS011;9487;50.892;6.906;2023-06-24T02:57:29;11.33;;;10.27;;
18716;SDS011;9487;50.892;6.906;2023-06-24T02:59:58;10.47;;;9.57;;
18716;SDS011;9487;50.892;6.906;2023-06-24T03:02:30;10.40;;;9.57;;
18716;SDS011;9487;50.892;6.906;2023-06-24T03:04:59;11.37;;;10.37;;
18716;SDS011;9487;50.892;6.906;2023-06-24T03:07:27;10.53;;;9.73;;
18716;SDS011;9487;50.892;6.906;2023-06-24T03:09:55;10.33;;;9.43;;
18716;SDS011;9487;50.892;6.906;2023-06-24T03:12:23;10.33;;;9.43;;
18716;SDS011;9487;50.892;6.906;2023-06-24T03:14:50;10.83;;;9.77;;
18716;SDS011;9487;50.892;6.906;2023-06-24T03:17:18;10.50;;;9.57;;
18716;SDS011;9487;50.892;6.906;2023-06-24T03:19:45;12.03;;;11.03;;
18716;SDS011;9487;50.892;6.906;2023-06-24T03:22:12;11.10;;;10.10;;
18716;SDS011;9487;50.892;6.906;2023-06-24T03:24:39;11.67;;;10.47;;
18716;SDS011;9487;50.892;6.906;2023-06-24T03:27:06;12.07;;;9.97;;
18716;SDS011;9487;50.892;6.906;2023-06-24T03:29:33;10.37;;;9.53;;
18716;SDS011;9487;50.892;6.906;2023-06-24T03:32:00;10.87;;;9.73;;
18716;SDS011;9487;50.892;6.906;2023-06-24T03:34:29;11.50;;;10.33;;
18716;SDS011;9487;50.892;6.906;2023-06-24T03:36:56;11.17;;;10.10;;
18716;SDS011;9487;50.892;6.906;2023-06-24T03:39:25;10.70;;;9.80;;
18716;SDS011;9487;50.892;6.906;2023-06-24T03:41:52;11.90;;;9.80;;
18716;SDS011;9487;50.892;6.906;2023-06-24T03:44:19;12.00;;;10.77;;
18716;SDS011;9487;50.892;6.906;2023-06-24T03:46:46;11.43;;;10.37;;
18716;SDS011;9487;50.892;6.906;2023-06-24T03:49:12;11.60;;;10.33;;
18716;SDS011;9487;50.892;6.906;2023-06-24T03:51:43;11.13;;;10.07;;
18716;SDS011;9487;50.892;6.906;2023-06-24T03:54:10;11.40;;;10.40;;
18716;SDS011;9487;50.892;6.906;2023-06-24T03:56:39;11.40;;;10.30;;
18716;SDS011;9487;50.892;6.906;2023-06-24T03:59:08;11.17;;;10.13;;
18716;SDS011;9487;50.892;6.906;2023-06-24T04:01:35;10.47;;;9.63;;
18716;SDS011;9487;50.892;6.906;2023-06-24T04:04:02;10.53;;;9.63;;
18716;SDS011;9487;50.892;6.906;2023-06-24T04:06:29;10.43;;;9.43;;
18716;SDS011;9487;50.892;6.906;2023-06-24T04:08:57;10.67;;;9.77;;
18716;SDS011;9487;50.892;6.906;2023-06-24T04:11:24;11.53;;;10.50;;
18716;SDS011;9487;50.892;6.906;2023-06-24T04:13:51;10.50;;;9.70;;
18716;SDS011;9487;50.892;6.906;2023-06-24T04:16:18;11.77;;;10.70;;
18716;SDS011;9487;50.892;6.906;2023-06-24T04:18:45;11.20;;;10.20;;
18716;SDS011;9487;50.892;6.906;2023-06-24T04:21:12;12.00;;;10.80;;
18716;SDS011;9487;50.892;6.906;2023-06-24T04:23:39;11.80;;;10.53;;
18716;SDS011;9487;50.892;6.906;2023-06-24T04:26:08;11.63;;;10.63;;
18716;SDS011;9487;50.892;6.906;2023-06-24T04:28:35;10.37;;;9.40;;
18716;SDS011;9487;50.892;6.906;2023-06-24T04:31:03;10.70;;;9.70;;
18716;SDS011;9487;50.892;6.906;2023-06-24T04:33:30;10.20;;;9.20;;
18716;SDS011;9487;50.892;6.906;2023-06-24T04:35:57;11.10;;;10.07;;
18716;SDS011;9487;50.892;6.906;2023-06-24T04:38:25;11.57;;;10.47;;
18716;SDS011;9487;50.892;6.906;2023-06-24T04:40:52;11.10;;;10.10;;
18716;SDS011;9487;50.892;6.906;2023-06-24T04:43:20;11.37;;;10.27;;
18716;SDS011;9487;50.892;6.906;2023-06-24T04:45:47;10.67;;;9.77;;
18716;SDS011;9487;50.892;6.906;2023-06-24T04:48:14;11.27;;;10.37;;
18716;SDS011;9487;50.892;6.906;2023-06-24T04:50:41;11.93;;;10.37;;
18716;SDS011;9487;50.892;6.906;2023-06-24T04:53:08;11.70;;;9.97;;
18716;SDS011;9487;50.892;6.906;2023-06-24T04:55:35;10.93;;;9.93;;
18716;SDS011;9487;50.892;6.906;2023-06-24T04:58:02;10.93;;;9.93;;
18716;SDS011;9487;50.892;6.906;2023-06-24T05:00:30;10.07;;;9.07;;
18716;SDS011;9487;50.892;6.906;2023-06-24T05:02:58;9.80;;;8.93;;
18716;SDS011;9487;50.892;6.906;2023-06-24T05:05:24;10.20;;;9.13;;
18716;SDS011;9487;50.892;6.906;2023-06-24T05:07:51;10.20;;;8.57;;
18716;SDS011;9487;50.892;6.906;2023-06-24T05:10:18;9.23;;;8.13;;
18716;SDS011;9487;50.892;6.906;2023-06-24T05:12:45;9.73;;;8.73;;
18716;SDS011;9487;50.892;6.906;2023-06-24T05:15:12;9.97;;;8.57;;
18716;SDS011;9487;50.892;6.906;2023-06-24T05:17:41;8.70;;;7.83;;
18716;SDS011;9487;50.892;6.906;2023-06-24T05:20:09;9.57;;;8.67;;
18716;SDS011;9487;50.892;6.906;2023-06-24T05:22:36;9.63;;;8.63;;
18716;SDS011;9487;50.892;6.906;2023-06-24T05:25:04;9.50;;;8.60;;
18716;SDS011;9487;50.892;6.906;2023-06-24T05:27:32;8.30;;;7.60;;
18716;SDS011;9487;50.892;6.906;2023-06-24T05:29:58;10.27;;;9.10;;
18716;SDS011;9487;50.892;6.906;2023-06-24T05:32:26;9.43;;;8.43;;
18716;SDS011;9487;50.892;6.906;2023-06-24T05:34:54;8.67;;;7.93;;
18716;SDS011;9487;50.892;6.906;2023-06-24T05:37:21;8.10;;;7.40;;
18716;SDS011;9487;50.892;6.906;2023-06-24T05:39:48;7.83;;;7.23;;
18716;SDS011;9487;50.892;6.906;2023-06-24T05:42:15;9.57;;;8.50;;
18716;SDS011;9487;50.892;6.906;2023-06-24T05:44:42;9.33;;;8.20;;
18716;SDS011;9487;50.892;6.906;2023-06-24T05:47:09;8.53;;;7.73;;
18716;SDS011;9487;50.892;6.906;2023-06-24T05:49:36;8.20;;;7.40;;
18716;SDS011;9487;50.892;6.906;2023-06-24T05:52:05;9.17;;;8.00;;
18716;SDS011;9487;50.892;6.906;2023-06-24T05:54:32;8.57;;;7.87;;
18716;SDS011;9487;50.892;6.906;2023-06-24T05:56:59;9.13;;;8.23;;
18716;SDS011;9487;50.892;6.906;2023-06-24T05:59:26;9.20;;;7.73;;
18716;SDS011;9487;50.892;6.906;2023-06-24T06:01:53;9.17;;;7.30;;
18716;SDS011;9487;50.892;6.906;2023-06-24T06:04:20;8.57;;;7.80;;
18716;SDS011;9487;50.892;6.906;2023-06-24T06:06:47;8.30;;;7.50;;
18716;SDS011;9487;50.892;6.906;2023-06-24T06:09:15;7.67;;;7.07;;
18716;SDS011;9487;50.892;6.906;2023-06-24T06:11:42;9.67;;;8.63;;
18716;SDS011;9487;50.892;6.906;2023-06-24T06:14:08;9.30;;;8.10;;
18716;SDS011;9487;50.892;6.906;2023-06-24T06:16:35;9.50;;;7.80;;
18716;SDS011;9487;50.892;6.906;2023-06-24T06:19:02;8.07;;;7.37;;
18716;SDS011;9487;50.892;6.906;2023-06-24T06:21:29;9.97;;;7.73;;
18716;SDS011;9487;50.892;6.906;2023-06-24T06:23:56;7.95;;;7.25;;
18716;SDS011;9487;50.892;6.906;2023-06-24T06:26:24;8.77;;;7.93;;
18716;SDS011;9487;50.892;6.906;2023-06-24T06:28:51;10.73;;;9.50;;
18716;SDS011;9487;50.892;6.906;2023-06-24T06:31:18;10.17;;;9.00;;
18716;SDS011;9487;50.892;6.906;2023-06-24T06:33:46;10.13;;;8.07;;
18716;SDS011;9487;50.892;6.906;2023-06-24T06:36:13;8.70;;;7.90;;
18716;SDS011;9487;50.892;6.906;2023-06-24T06:38:40;9.07;;;8.20;;
18716;SDS011;9487;50.892;6.906;2023-06-24T06:41:07;9.83;;;8.63;;
18716;SDS011;9487;50.892;6.906;2023-06-24T06:43:35;10.20;;;7.87;;
18716;SDS011;9487;50.892;6.906;2023-06-24T06:46:02;10.70;;;8.07;;
18716;SDS011;9487;50.892;6.906;2023-06-24T06:48:29;12.00;;;7.70;;
18716;SDS011;9487;50.892;6.906;2023-06-24T06:50:56;8.60;;;7.73;;
18716;SDS011;9487;50.892;6.906;2023-06-24T06:53:23;10.43;;;8.37;;
18716;SDS011;9487;50.892;6.906;2023-06-24T06:55:50;10.80;;;8.20;;
18716;SDS011;9487;50.892;6.906;2023-06-24T06:58:17;12.13;;;8.13;;
18716;SDS011;9487;50.892;6.906;2023-06-24T07:00:46;8.60;;;7.00;;
18716;SDS011;9487;50.892;6.906;2023-06-24T07:03:12;8.90;;;7.17;;
18716;SDS011;9487;50.892;6.906;2023-06-24T07:05:39;8.47;;;6.07;;
18716;SDS011;9487;50.892;6.906;2023-06-24T07:08:06;9.77;;;7.47;;
18716;SDS011;9487;50.892;6.906;2023-06-24T07:10:33;8.57;;;6.40;;
18716;SDS011;9487;50.892;6.906;2023-06-24T07:13:00;8.73;;;6.80;;
18716;SDS011;9487;50.892;6.906;2023-06-24T07:15:27;7.90;;;6.83;;
18716;SDS011;9487;50.892;6.906;2023-06-24T07:17:56;9.63;;;7.60;;
18716;SDS011;9487;50.892;6.906;2023-06-24T07:20:22;7.90;;;5.53;;
18716;SDS011;9487;50.892;6.906;2023-06-24T07:22:50;8.57;;;7.37;;
18716;SDS011;9487;50.892;6.906;2023-06-24T07:25:17;7.20;;;6.50;;
18716;SDS011;9487;50.892;6.906;2023-06-24T07:27:44;9.70;;;7.60;;
18716;SDS011;9487;50.892;6.906;2023-06-24T07:30:11;8.57;;;7.73;;
18716;SDS011;9487;50.892;6.906;2023-06-24T07:32:38;9.43;;;8.20;;
18716;SDS011;9487;50.892;6.906;2023-06-24T07:35:07;8.80;;;8.00;;
18716;SDS011;9487;50.892;6.906;2023-06-24T07:37:35;11.33;;;7.37;;
18716;SDS011;9487;50.892;6.906;2023-06-24T07:40:04;8.50;;;7.17;;
18716;SDS011;9487;50.892;6.906;2023-06-24T07:42:33;11.60;;;7.37;;
18716;SDS011;9487;50.892;6.906;2023-06-24T07:45:00;8.60;;;7.47;;
18716;SDS011;9487;50.892;6.906;2023-06-24T07:47:27;9.07;;;8.07;;
18716;SDS011;9487;50.892;6.906;2023-06-24T07:49:53;9.40;;;7.50;;
18716;SDS011;9487;50.892;6.906;2023-06-24T07:52:22;10.50;;;8.23;;
18716;SDS011;9487;50.892;6.906;2023-06-24T07:54:49;9.57;;;7.03;;
18716;SDS011;9487;50.892;6.906;2023-06-24T07:57:16;6.90;;;6.30;;
18716;SDS011;9487;50.892;6.906;2023-06-24T07:59:42;8.53;;;7.20;;
18716;SDS011;9487;50.892;6.906;2023-06-24T08:02:09;8.47;;;6.87;;
18716;SDS011;9487;50.892;6.906;2023-06-24T08:04:36;8.57;;;6.77;;
18716;SDS011;9487;50.892;6.906;2023-06-24T08:07:03;7.45;;;6.75;;
18716;SDS011;9487;50.892;6.906;2023-06-24T08:09:32;10.02;;;7.53;;
18716;SDS011;9487;50.892;6.906;2023-06-24T08:11:59;7.23;;;6.53;;
18716;SDS011;9487;50.892;6.906;2023-06-24T08:14:26;7.53;;;5.50;;
18716;SDS011;9487;50.892;6.906;2023-06-24T08:16:53;8.82;;;6.57;;
18716;SDS011;9487;50.892;6.906;2023-06-24T08:19:20;10.40;;;7.60;;
18716;SDS011;9487;50.892;6.906;2023-06-24T08:21:47;10.35;;;7.15;;
18716;SDS011;9487;50.892;6.906;2023-06-24T08:24:14;8.30;;;7.40;;
18716;SDS011;9487;50.892;6.906;2023-06-24T08:30:01;8.88;;;6.95;;
18716;SDS011;9487;50.892;6.906;2023-06-24T08:32:28;9.40;;;8.50;;
18716;SDS011;9487;50.892;6.906;2023-06-24T08:34:55;11.27;;;8.60;;
18716;SDS011;9487;50.892;6.906;2023-06-24T08:37:21;9.07;;;8.17;;
18716;SDS011;9487;50.892;6.906;2023-06-24T08:39:48;10.60;;;9.37;;
18716;SDS011;9487;50.892;6.906;2023-06-24T08:42:15;9.05;;;8.05;;
18716;SDS011;9487;50.892;6.906;2023-06-24T08:44:42;9.02;;;8.13;;
18716;SDS011;9487;50.892;6.906;2023-06-24T08:47:10;7.55;;;6.78;;
18716;SDS011;9487;50.892;6.906;2023-06-24T08:49:41;8.23;;;7.43;;
18716;SDS011;9487;50.892;6.906;2023-06-24T08:52:14;9.10;;;7.50;;
18716;SDS011;9487;50.892;6.906;2023-06-24T08:54:44;9.95;;;8.88;;
18716;SDS011;9487;50.892;6.906;2023-06-24T08:57:13;12.13;;;8.73;;
18716;SDS011;9487;50.892;6.906;2023-06-24T08:59:40;8.65;;;7.50;;
18716;SDS011;9487;50.892;6.906;2023-06-24T09:02:08;10.23;;;9.00;;
18716;SDS011;9487;50.892;6.906;2023-06-24T09:04:37;9.77;;;8.43;;
18716;SDS011;9487;50.892;6.906;2023-06-24T09:07:04;10.23;;;8.98;;
18716;SDS011;9487;50.892;6.906;2023-06-24T09:09:31;10.32;;;8.35;;
18716;SDS011;9487;50.892;6.906;2023-06-24T09:11:58;11.10;;;8.38;;
18716;SDS011;9487;50.892;6.906;2023-06-24T09:14:26;7.63;;;6.95;;
18716;SDS011;9487;50.892;6.906;2023-06-24T09:16:55;8.30;;;7.47;;
18716;SDS011;9487;50.892;6.906;2023-06-24T09:19:24;9.35;;;8.05;;
18716;SDS011;9487;50.892;6.906;2023-06-24T09:21:55;7.60;;;6.90;;
18716;SDS011;9487;50.892;6.906;2023-06-24T09:24:27;7.80;;;6.95;;
18716;SDS011;9487;50.892;6.906;2023-06-24T09:26:55;8.52;;;7.82;;
18716;SDS011;9487;50.892;6.906;2023-06-24T09:29:25;8.18;;;7.45;;
18716;SDS011;9487;50.892;6.906;2023-06-24T09:31:52;8.43;;;7.40;;
18716;SDS011;9487;50.892;6.906;2023-06-24T09:34:21;9.30;;;7.38;;
18716;SDS011;9487;50.892;6.906;2023-06-24T09:36:50;7.97;;;7.15;;
18716;SDS011;9487;50.892;6.906;2023-06-24T09:39:20;8.43;;;7.03;;
18716;SDS011;9487;50.892;6.906;2023-06-24T09:41:52;7.97;;;7.07;;
18716;SDS011;9487;50.892;6.906;2023-06-24T09:44:19;7.03;;;6.32;;
18716;SDS011;9487;50.892;6.906;2023-06-24T09:46:47;9.90;;;7.40;;
18716;SDS011;9487;50.892;6.906;2023-06-24T09:49:15;13.93;;;7.60;;
18716;SDS011;9487;50.892;6.906;2023-06-24T09:51:42;10.23;;;8.18;;
18716;SDS011;9487;50.892;6.906;2023-06-24T09:54:12;8.20;;;7.30;;
18716;SDS011;9487;50.892;6.906;2023-06-24T09:56:42;9.23;;;7.45;;
18716;SDS011;9487;50.892;6.906;2023-06-24T09:59:12;7.68;;;6.97;;
18716;SDS011;9487;50.892;6.906;2023-06-24T10:01:40;9.13;;;6.65;;
18716;SDS011;9487;50.892;6.906;2023-06-24T10:04:10;8.00;;;6.60;;
18716;SDS011;9487;50.892;6.906;2023-06-24T10:06:42;5.72;;;5.22;;
18716;SDS011;9487;50.892;6.906;2023-06-24T10:09:09;5.55;;;4.70;;
18716;SDS011;9487;50.892;6.906;2023-06-24T10:11:38;4.78;;;4.13;;
18716;SDS011;9487;50.892;6.906;2023-06-24T10:14:06;4.75;;;4.25;;
18716;SDS011;9487;50.892;6.906;2023-06-24T10:16:33;5.32;;;4.93;;
18716;SDS011;9487;50.892;6.906;2023-06-24T10:19:01;5.22;;;4.72;;
18716;SDS011;9487;50.892;6.906;2023-06-24T10:21:43;5.07;;;4.57;;
18716;SDS011;9487;50.892;6.906;2023-06-24T10:24:12;4.90;;;4.40;;
18716;SDS011;9487;50.892;6.906;2023-06-24T10:26:39;5.50;;;5.10;;
18716;SDS011;9487;50.892;6.906;2023-06-24T10:29:11;6.47;;;5.13;;
18716;SDS011;9487;50.892;6.906;2023-06-24T10:31:51;4.75;;;4.28;;
18716;SDS011;9487;50.892;6.906;2023-06-24T10:34:30;4.72;;;4.22;;
18716;SDS011;9487;50.892;6.906;2023-06-24T10:36:59;4.53;;;4.00;;
18716;SDS011;9487;50.892;6.906;2023-06-24T10:42:28;5.30;;;4.80;;
18716;SDS011;9487;50.892;6.906;2023-06-24T10:45:15;4.63;;;4.15;;
18716;SDS011;9487;50.892;6.906;2023-06-24T10:47:46;5.53;;;4.20;;
18716;SDS011;9487;50.892;6.906;2023-06-24T10:50:15;5.07;;;4.55;;
18716;SDS011;9487;50.892;6.906;2023-06-24T10:52:45;4.82;;;3.83;;
18716;SDS011;9487;50.892;6.906;2023-06-24T10:55:13;4.78;;;4.22;;
18716;SDS011;9487;50.892;6.906;2023-06-24T10:57:41;5.85;;;4.40;;
18716;SDS011;9487;50.892;6.906;2023-06-24T11:00:10;4.63;;;4.00;;
18716;SDS011;9487;50.892;6.906;2023-06-24T11:02:39;5.05;;;4.45;;
18716;SDS011;9487;50.892;6.906;2023-06-24T11:05:06;6.18;;;4.65;;
18716;SDS011;9487;50.892;6.906;2023-06-24T11:07:35;5.47;;;4.90;;
18716;SDS011;9487;50.892;6.906;2023-06-24T11:10:03;4.85;;;4.43;;
18716;SDS011;9487;50.892;6.906;2023-06-24T11:12:32;5.90;;;4.53;;
18716;SDS011;9487;50.892;6.906;2023-06-24T11:15:00;4.95;;;4.45;;
18716;SDS011;9487;50.892;6.906;2023-06-24T11:17:28;6.00;;;5.35;;
18716;SDS011;9487;50.892;6.906;2023-06-24T11:19:57;6.40;;;5.55;;
18716;SDS011;9487;50.892;6.906;2023-06-24T11:22:24;7.78;;;5.00;;
18716;SDS011;9487;50.892;6.906;2023-06-24T11:24:52;7.50;;;5.75;;
18716;SDS011;9487;50.892;6.906;2023-06-24T11:27:24;5.95;;;5.40;;
18716;SDS011;9487;50.892;6.906;2023-06-24T11:29:52;5.18;;;4.68;;
18716;SDS011;9487;50.892;6.906;2023-06-24T11:32:19;5.18;;;4.68;;
18716;SDS011;9487;50.892;6.906;2023-06-24T11:34:46;6.50;;;5.60;;
18716;SDS011;9487;50.892;6.906;2023-06-24T11:37:16;5.55;;;4.53;;
18716;SDS011;9487;50.892;6.906;2023-06-24T11:39:44;6.07;;;4.97;;
18716;SDS011;9487;50.892;6.906;2023-06-24T11:42:11;6.20;;;4.68;;
18716;SDS011;9487;50.892;6.906;2023-06-24T11:44:42;8.18;;;5.18;;
18716;SDS011;9487;50.892;6.906;2023-06-24T11:47:10;4.93;;;4.53;;
18716;SDS011;9487;50.892;6.906;2023-06-24T11:49:48;5.40;;;4.90;;
18716;SDS011;9487;50.892;6.906;2023-06-24T11:52:17;6.80;;;5.25;;
18716;SDS011;9487;50.892;6.906;2023-06-24T11:54:43;5.65;;;4.93;;
18716;SDS011;9487;50.892;6.906;2023-06-24T11:57:10;7.22;;;5.20;;
18716;SDS011;9487;50.892;6.906;2023-06-24T11:59:38;5.68;;;4.70;;
18716;SDS011;9487;50.892;6.906;2023-06-24T12:02:05;6.07;;;5.05;;
18716;SDS011;9487;50.892;6.906;2023-06-24T12:04:32;6.43;;;5.18;;
18716;SDS011;9487;50.892;6.906;2023-06-24T12:07:00;6.13;;;5.25;;
18716;SDS011;9487;50.892;6.906;2023-06-24T12:09:28;5.80;;;5.30;;
18716;SDS011;9487;50.892;6.906;2023-06-24T12:11:55;5.13;;;4.57;;
18716;SDS011;9487;50.892;6.906;2023-06-24T12:14:22;7.35;;;5.05;;
18716;SDS011;9487;50.892;6.906;2023-06-24T12:16:48;7.72;;;5.40;;
18716;SDS011;9487;50.892;6.906;2023-06-24T12:19:16;5.45;;;4.85;;
18716;SDS011;9487;50.892;6.906;2023-06-24T12:21:42;5.35;;;4.85;;
18716;SDS011;9487;50.892;6.906;2023-06-24T12:24:09;5.80;;;5.15;;
18716;SDS011;9487;50.892;6.906;2023-06-24T12:26:39;6.75;;;4.63;;
18716;SDS011;9487;50.892;6.906;2023-06-24T12:29:06;6.80;;;5.18;;
18716;SDS011;9487;50.892;6.906;2023-06-24T12:31:33;6.03;;;4.75;;
18716;SDS011;9487;50.892;6.906;2023-06-24T12:34:00;5.70;;;4.55;;
18716;SDS011;9487;50.892;6.906;2023-06-24T12:36:26;6.32;;;4.47;;
18716;SDS011;9487;50.892;6.906;2023-06-24T12:38:53;4.75;;;4.30;;
18716;SDS011;9487;50.892;6.906;2023-06-24T12:41:20;5.57;;;4.05;;
18716;SDS011;9487;50.892;6.906;2023-06-24T12:43:49;6.05;;;5.00;;
18716;SDS011;9487;50.892;6.906;2023-06-24T12:46:15;4.85;;;4.32;;
18716;SDS011;9487;50.892;6.906;2023-06-24T12:48:42;4.60;;;4.20;;
18716;SDS011;9487;50.892;6.906;2023-06-24T12:51:09;6.05;;;4.82;;
18716;SDS011;9487;50.892;6.906;2023-06-24T12:53:36;6.57;;;4.82;;
18716;SDS011;9487;50.892;6.906;2023-06-24T12:56:03;6.85;;;4.70;;
18716;SDS011;9487;50.892;6.906;2023-06-24T12:58:30;5.20;;;4.68;;
18716;SDS011;9487;50.892;6.906;2023-06-24T13:00:58;5.85;;;4.82;;
18716;SDS011;9487;50.892;6.906;2023-06-24T13:03:25;4.82;;;4.40;;
18716;SDS011;9487;50.892;6.906;2023-06-24T13:05:52;5.22;;;4.80;;
18716;SDS011;9487;50.892;6.906;2023-06-24T13:08:19;5.38;;;4.65;;
18716;SDS011;9487;50.892;6.906;2023-06-24T13:10:46;5.25;;;4.35;;
18716;SDS011;9487;50.892;6.906;2023-06-24T13:13:13;5.28;;;4.30;;
18716;SDS011;9487;50.892;6.906;2023-06-24T13:15:40;4.90;;;4.50;;
18716;SDS011;9487;50.892;6.906;2023-06-24T13:18:08;6.22;;;5.00;;
18716;SDS011;9487;50.892;6.906;2023-06-24T13:20:35;4.88;;;4.40;;
18716;SDS011;9487;50.892;6.906;2023-06-24T13:23:02;5.82;;;4.15;;
18716;SDS011;9487;50.892;6.906;2023-06-24T13:25:28;7.10;;;4.30;;
18716;SDS011;9487;50.892;6.906;2023-06-24T13:27:56;5.38;;;4.20;;
18716;SDS011;9487;50.892;6.906;2023-06-24T13:30:23;5.07;;;4.57;;
18716;SDS011;9487;50.892;6.906;2023-06-24T13:32:50;6.47;;;4.63;;
18716;SDS011;9487;50.892;6.906;2023-06-24T13:35:18;5.55;;;4.35;;
18716;SDS011;9487;50.892;6.906;2023-06-24T13:37:46;6.05;;;4.57;;
18716;SDS011;9487;50.892;6.906;2023-06-24T13:40:12;4.65;;;4.15;;
18716;SDS011;9487;50.892;6.906;2023-06-24T13:42:39;4.63;;;3.97;;
18716;SDS011;9487;50.892;6.906;2023-06-24T13:45:06;5.82;;;4.75;;
18716;SDS011;9487;50.892;6.906;2023-06-24T13:47:34;4.72;;;4.18;;
18716;SDS011;9487;50.892;6.906;2023-06-24T13:50:01;4.78;;;4.38;;
18716;SDS011;9487;50.892;6.906;2023-06-24T13:52:29;7.07;;;4.80;;
18716;SDS011;9487;50.892;6.906;2023-06-24T13:54:56;5.57;;;4.43;;
18716;SDS011;9487;50.892;6.906;2023-06-24T13:57:23;4.40;;;4.00;;
18716;SDS011;9487;50.892;6.906;2023-06-24T13:59:50;5.20;;;4.20;;
18716;SDS011;9487;50.892;6.906;2023-06-24T14:02:17;5.95;;;4.22;;
18716;SDS011;9487;50.892;6.906;2023-06-24T14:04:44;6.63;;;4.85;;
18716;SDS011;9487;50.892;6.906;2023-06-24T14:07:11;6.55;;;3.92;;
18716;SDS011;9487;50.892;6.906;2023-06-24T14:09:40;4.70;;;4.07;;
18716;SDS011;9487;50.892;6.906;2023-06-24T14:12:08;4.45;;;3.95;;
18716;SDS011;9487;50.892;6.906;2023-06-24T14:14:35;4.88;;;4.45;;
18716;SDS011;9487;50.892;6.906;2023-06-24T14:17:04;4.20;;;3.78;;
18716;SDS011;9487;50.892;6.906;2023-06-24T14:19:33;4.32;;;4.03;;
18716;SDS011;9487;50.892;6.906;2023-06-24T14:22:01;4.60;;;4.20;;
18716;SDS011;9487;50.892;6.906;2023-06-24T14:24:28;5.57;;;3.92;;
18716;SDS011;9487;50.892;6.906;2023-06-24T14:26:56;4.53;;;3.70;;
18716;SDS011;9487;50.892;6.906;2023-06-24T14:29:23;3.88;;;3.53;;
18716;SDS011;9487;50.892;6.906;2023-06-24T14:31:50;5.22;;;3.85;;
18716;SDS011;9487;50.892;6.906;2023-06-24T14:34:17;4.18;;;3.78;;
18716;SDS011;9487;50.892;6.906;2023-06-24T14:36:45;4.20;;;3.60;;
18716;SDS011;9487;50.892;6.906;2023-06-24T14:39:13;8.40;;;4.40;;
18716;SDS011;9487;50.892;6.906;2023-06-24T14:41:41;4.35;;;3.70;;
18716;SDS011;9487;50.892;6.906;2023-06-24T14:44:10;3.88;;;3.50;;
18716;SDS011;9487;50.892;6.906;2023-06-24T14:46:37;4.50;;;3.58;;
18716;SDS011;9487;50.892;6.906;2023-06-24T14:49:03;3.90;;;3.60;;
18716;SDS011;9487;50.892;6.906;2023-06-24T14:51:30;5.07;;;3.65;;
18716;SDS011;9487;50.892;6.906;2023-06-24T14:53:57;4.10;;;3.80;;
18716;SDS011;9487;50.892;6.906;2023-06-24T14:56:24;4.63;;;4.22;;
18716;SDS011;9487;50.892;6.906;2023-06-24T14:58:51;3.90;;;3.58;;
18716;SDS011;9487;50.892;6.906;2023-06-24T15:01:20;3.78;;;3.40;;
18716;SDS011;9487;50.892;6.906;2023-06-24T15:03:46;3.60;;;3.30;;
18716;SDS011;9487;50.892;6.906;2023-06-24T15:06:13;3.83;;;3.42;;
18716;SDS011;9487;50.892;6.906;2023-06-24T15:08:40;3.92;;;3.47;;